sensor_id;sensor_type;location;lat;lon;timestamp;temperature;humidity
70244;DHT22;57634;51.136;17.024;2023-03-31T00:02:58;11.70;73.30
70244;DHT22;57634;51.136;17.024;2023-03-31T00:06:00;11.60;73.30
70244;DHT22;57634;51.136;17.024;2023-03-31T00:09:01;11.60;73.50
70244;DHT22;57634;51.136;17.024;2023-03-31T00:12:02;11.50;73.60
70244;DHT22;57634;51.136;17.024;2023-03-31T00:15:03;11.50;73.60
70244;DHT22;57634;51.136;17.024;2023-03-31T00:18:05;11.50;73.70
70244;DHT22;57634;51.136;17.024;2023-03-31T00:21:14;11.40;73.70
70244;DHT22;57634;51.136;17.024;2023-03-31T00:24:50;11.40;73.80
70244;DHT22;57634;51.136;17.024;2023-03-31T00:27:51;11.30;73.90
70244;DHT22;57634;51.136;17.024;2023-03-31T00:31:01;11.30;74.10
70244;DHT22;57634;51.136;17.024;2023-03-31T00:34:02;11.20;74.10
70244;DHT22;57634;51.136;17.024;2023-03-31T00:37:04;11.20;74.30
70244;DHT22;57634;51.136;17.024;2023-03-31T00:40:06;11.10;74.40
70244;DHT22;57634;51.136;17.024;2023-03-31T00:43:22;11.10;74.50
70244;DHT22;57634;51.136;17.024;2023-03-31T00:46:29;11.00;74.60
70244;DHT22;57634;51.136;17.024;2023-03-31T00:49:59;11.00;74.70
70244;DHT22;57634;51.136;17.024;2023-03-31T00:56:01;10.90;74.80
70244;DHT22;57634;51.136;17.024;2023-03-31T00:59:07;10.90;75.10
70244;DHT22;57634;51.136;17.024;2023-03-31T01:02:11;10.90;75.10
70244;DHT22;57634;51.136;17.024;2023-03-31T01:05:13;10.80;75.20
70244;DHT22;57634;51.136;17.024;2023-03-31T01:08:17;10.80;75.30
70244;DHT22;57634;51.136;17.024;2023-03-31T01:11:20;10.70;75.40
70244;DHT22;57634;51.136;17.024;2023-03-31T01:14:23;10.70;75.50
70244;DHT22;57634;51.136;17.024;2023-03-31T01:17:25;10.70;75.50
70244;DHT22;57634;51.136;17.024;2023-03-31T01:30:47;10.60;75.70
70244;DHT22;57634;51.136;17.024;2023-03-31T01:40:51;10.40;76.00
70244;DHT22;57634;51.136;17.024;2023-03-31T01:47:23;10.40;76.10
70244;DHT22;57634;51.136;17.024;2023-03-31T01:50:56;10.40;76.10
70244;DHT22;57634;51.136;17.024;2023-03-31T01:54:10;10.40;76.30
70244;DHT22;57634;51.136;17.024;2023-03-31T01:57:13;10.30;76.30
70244;DHT22;57634;51.136;17.024;2023-03-31T02:00:19;10.30;76.40
70244;DHT22;57634;51.136;17.024;2023-03-31T02:03:27;10.20;76.50
70244;DHT22;57634;51.136;17.024;2023-03-31T02:06:34;10.20;76.50
70244;DHT22;57634;51.136;17.024;2023-03-31T02:10:08;10.20;76.50
70244;DHT22;57634;51.136;17.024;2023-03-31T02:13:12;10.10;76.70
70244;DHT22;57634;51.136;17.024;2023-03-31T02:16:19;10.10;76.80
70244;DHT22;57634;51.136;17.024;2023-03-31T02:19:28;10.10;76.90
70244;DHT22;57634;51.136;17.024;2023-03-31T02:22:34;10.10;77.00
70244;DHT22;57634;51.136;17.024;2023-03-31T02:25:49;10.10;76.90
70244;DHT22;57634;51.136;17.024;2023-03-31T02:29:17;10.10;76.90
70244;DHT22;57634;51.136;17.024;2023-03-31T02:32:27;10.10;77.00
70244;DHT22;57634;51.136;17.024;2023-03-31T02:35:32;10.10;77.00
70244;DHT22;57634;51.136;17.024;2023-03-31T02:38:42;10.00;76.90
70244;DHT22;57634;51.136;17.024;2023-03-31T02:41:43;10.00;77.00
70244;DHT22;57634;51.136;17.024;2023-03-31T02:44:45;10.00;77.00
70244;DHT22;57634;51.136;17.024;2023-03-31T02:47:46;9.90;76.90
70244;DHT22;57634;51.136;17.024;2023-03-31T02:57:53;9.90;77.30
70244;DHT22;57634;51.136;17.024;2023-03-31T03:01:03;9.90;77.30
70244;DHT22;57634;51.136;17.024;2023-03-31T03:17:35;9.80;77.20
70244;DHT22;57634;51.136;17.024;2023-03-31T03:21:02;9.80;77.20
70244;DHT22;57634;51.136;17.024;2023-03-31T03:24:05;9.80;77.40
70244;DHT22;57634;51.136;17.024;2023-03-31T03:27:06;9.70;77.40
70244;DHT22;57634;51.136;17.024;2023-03-31T03:30:10;9.80;77.50
70244;DHT22;57634;51.136;17.024;2023-03-31T03:33:12;9.70;77.50
70244;DHT22;57634;51.136;17.024;2023-03-31T03:36:17;9.70;77.50
70244;DHT22;57634;51.136;17.024;2023-03-31T03:39:18;9.70;77.60
70244;DHT22;57634;51.136;17.024;2023-03-31T03:42:19;9.70;77.60
70244;DHT22;57634;51.136;17.024;2023-03-31T03:45:21;9.70;77.60
70244;DHT22;57634;51.136;17.024;2023-03-31T03:48:22;9.70;77.60
70244;DHT22;57634;51.136;17.024;2023-03-31T03:51:23;9.70;77.60
70244;DHT22;57634;51.136;17.024;2023-03-31T03:54:25;9.80;77.60
70244;DHT22;57634;51.136;17.024;2023-03-31T03:57:27;9.80;77.50
70244;DHT22;57634;51.136;17.024;2023-03-31T04:00:54;9.80;77.30
70244;DHT22;57634;51.136;17.024;2023-03-31T04:03:56;9.80;77.20
70244;DHT22;57634;51.136;17.024;2023-03-31T04:06:57;9.80;77.20
70244;DHT22;57634;51.136;17.024;2023-03-31T04:09:58;9.80;77.10
70244;DHT22;57634;51.136;17.024;2023-03-31T04:13:00;9.80;77.10
70244;DHT22;57634;51.136;17.024;2023-03-31T04:16:01;9.70;77.10
70244;DHT22;57634;51.136;17.024;2023-03-31T04:19:02;9.70;77.00
70244;DHT22;57634;51.136;17.024;2023-03-31T04:22:05;9.70;77.00
70244;DHT22;57634;51.136;17.024;2023-03-31T04:25:08;9.70;77.00
70244;DHT22;57634;51.136;17.024;2023-03-31T04:28:16;9.70;77.00
70244;DHT22;57634;51.136;17.024;2023-03-31T04:31:18;9.70;77.00
70244;DHT22;57634;51.136;17.024;2023-03-31T04:34:53;9.70;77.00
70244;DHT22;57634;51.136;17.024;2023-03-31T04:38:02;9.70;77.10
70244;DHT22;57634;51.136;17.024;2023-03-31T04:41:03;9.70;77.10
70244;DHT22;57634;51.136;17.024;2023-03-31T04:44:07;9.70;77.10
70244;DHT22;57634;51.136;17.024;2023-03-31T04:47:09;9.70;77.20
70244;DHT22;57634;51.136;17.024;2023-03-31T04:50:10;9.80;77.70
70244;DHT22;57634;51.136;17.024;2023-03-31T04:53:12;10.20;78.70
70244;DHT22;57634;51.136;17.024;2023-03-31T04:56:13;10.60;78.50
70244;DHT22;57634;51.136;17.024;2023-03-31T04:59:15;11.00;76.50
70244;DHT22;57634;51.136;17.024;2023-03-31T05:02:16;11.30;75.90
70244;DHT22;57634;51.136;17.024;2023-03-31T05:05:53;11.90;76.10
70244;DHT22;57634;51.136;17.024;2023-03-31T05:08:54;12.90;74.60
70244;DHT22;57634;51.136;17.024;2023-03-31T05:11:56;13.50;71.70
70244;DHT22;57634;51.136;17.024;2023-03-31T05:14:57;14.20;70.40
70244;DHT22;57634;51.136;17.024;2023-03-31T05:17:58;15.00;68.30
70244;DHT22;57634;51.136;17.024;2023-03-31T05:24:13;16.70;63.70
70244;DHT22;57634;51.136;17.024;2023-03-31T05:27:15;17.30;61.10
70244;DHT22;57634;51.136;17.024;2023-03-31T05:30:16;17.90;59.20
70244;DHT22;57634;51.136;17.024;2023-03-31T05:33:18;18.40;57.70
70244;DHT22;57634;51.136;17.024;2023-03-31T05:36:19;18.80;56.00
70244;DHT22;57634;51.136;17.024;2023-03-31T05:39:51;19.20;54.40
70244;DHT22;57634;51.136;17.024;2023-03-31T05:42:52;19.50;52.10
70244;DHT22;57634;51.136;17.024;2023-03-31T05:45:54;19.70;51.20
70244;DHT22;57634;51.136;17.024;2023-03-31T05:48:55;19.80;50.40
70244;DHT22;57634;51.136;17.024;2023-03-31T05:51:56;19.90;50.00
70244;DHT22;57634;51.136;17.024;2023-03-31T05:54:58;20.00;49.20
70244;DHT22;57634;51.136;17.024;2023-03-31T05:57:59;19.90;49.20
70244;DHT22;57634;51.136;17.024;2023-03-31T06:01:05;20.00;49.00
70244;DHT22;57634;51.136;17.024;2023-03-31T06:04:06;20.30;48.60
70244;DHT22;57634;51.136;17.024;2023-03-31T06:07:07;20.30;47.70
70244;DHT22;57634;51.136;17.024;2023-03-31T06:10:11;20.10;48.00
70244;DHT22;57634;51.136;17.024;2023-03-31T06:13:12;20.10;47.80
70244;DHT22;57634;51.136;17.024;2023-03-31T06:16:14;19.90;47.60
70244;DHT22;57634;51.136;17.024;2023-03-31T06:19:42;19.40;47.90
70244;DHT22;57634;51.136;17.024;2023-03-31T06:22:43;18.70;48.50
70244;DHT22;57634;51.136;17.024;2023-03-31T06:25:45;18.20;49.50
70244;DHT22;57634;51.136;17.024;2023-03-31T06:28:46;17.70;50.50
70244;DHT22;57634;51.136;17.024;2023-03-31T06:31:47;17.20;51.50
70244;DHT22;57634;51.136;17.024;2023-03-31T06:34:49;16.90;52.50
70244;DHT22;57634;51.136;17.024;2023-03-31T06:37:50;16.80;54.20
70244;DHT22;57634;51.136;17.024;2023-03-31T06:40:52;17.40;55.20
70244;DHT22;57634;51.136;17.024;2023-03-31T06:43:53;18.20;53.20
70244;DHT22;57634;51.136;17.024;2023-03-31T06:46:54;18.90;52.70
70244;DHT22;57634;51.136;17.024;2023-03-31T06:49:56;19.70;50.70
70244;DHT22;57634;51.136;17.024;2023-03-31T06:52:57;20.20;50.00
70244;DHT22;57634;51.136;17.024;2023-03-31T06:56:00;20.90;48.80
70244;DHT22;57634;51.136;17.024;2023-03-31T06:59:02;21.30;47.30
70244;DHT22;57634;51.136;17.024;2023-03-31T07:02:30;21.40;46.70
70244;DHT22;57634;51.136;17.024;2023-03-31T07:05:31;21.50;46.10
70244;DHT22;57634;51.136;17.024;2023-03-31T07:08:32;21.30;45.70
70244;DHT22;57634;51.136;17.024;2023-03-31T07:11:33;21.00;45.80
70244;DHT22;57634;51.136;17.024;2023-03-31T07:14:35;20.70;46.40
70244;DHT22;57634;51.136;17.024;2023-03-31T07:17:36;20.50;46.40
70244;DHT22;57634;51.136;17.024;2023-03-31T07:20:42;20.20;46.60
70244;DHT22;57634;51.136;17.024;2023-03-31T07:23:44;19.70;47.20
70244;DHT22;57634;51.136;17.024;2023-03-31T07:26:45;19.20;48.10
70244;DHT22;57634;51.136;17.024;2023-03-31T07:29:47;18.70;49.00
70244;DHT22;57634;51.136;17.024;2023-03-31T07:32:50;18.30;49.90
70244;DHT22;57634;51.136;17.024;2023-03-31T07:35:52;17.90;50.70
70244;DHT22;57634;51.136;17.024;2023-03-31T07:38:53;17.50;51.50
70244;DHT22;57634;51.136;17.024;2023-03-31T07:42:20;17.10;52.30
70244;DHT22;57634;51.136;17.024;2023-03-31T07:45:24;16.80;53.30
70244;DHT22;57634;51.136;17.024;2023-03-31T07:48:25;16.50;54.00
70244;DHT22;57634;51.136;17.024;2023-03-31T07:51:29;16.30;54.90
70244;DHT22;57634;51.136;17.024;2023-03-31T07:54:30;16.20;55.70
70244;DHT22;57634;51.136;17.024;2023-03-31T07:57:32;16.40;56.10
70244;DHT22;57634;51.136;17.024;2023-03-31T08:00:33;16.70;56.50
70244;DHT22;57634;51.136;17.024;2023-03-31T08:03:34;17.60;56.20
70244;DHT22;57634;51.136;17.024;2023-03-31T08:06:36;18.60;54.60
70244;DHT22;57634;51.136;17.024;2023-03-31T08:09:38;19.70;52.60
70244;DHT22;57634;51.136;17.024;2023-03-31T08:12:39;20.60;50.60
70244;DHT22;57634;51.136;17.024;2023-03-31T08:15:40;21.30;48.80
70244;DHT22;57634;51.136;17.024;2023-03-31T08:18:41;21.80;47.50
70244;DHT22;57634;51.136;17.024;2023-03-31T08:21:43;22.10;46.30
70244;DHT22;57634;51.136;17.024;2023-03-31T08:25:10;22.00;45.60
70244;DHT22;57634;51.136;17.024;2023-03-31T08:28:11;21.80;45.50
70244;DHT22;57634;51.136;17.024;2023-03-31T08:31:14;21.60;45.60
70244;DHT22;57634;51.136;17.024;2023-03-31T08:34:16;21.40;45.80
70244;DHT22;57634;51.136;17.024;2023-03-31T08:37:18;21.30;45.90
70244;DHT22;57634;51.136;17.024;2023-03-31T08:40:23;21.20;45.80
70244;DHT22;57634;51.136;17.024;2023-03-31T08:43:30;20.90;46.00
70244;DHT22;57634;51.136;17.024;2023-03-31T08:46:33;20.60;46.40
70244;DHT22;57634;51.136;17.024;2023-03-31T08:49:44;20.40;46.80
70244;DHT22;57634;51.136;17.024;2023-03-31T08:56:26;20.50;47.10
70244;DHT22;57634;51.136;17.024;2023-03-31T08:59:32;20.60;46.60
70244;DHT22;57634;51.136;17.024;2023-03-31T09:02:47;20.50;46.50
70244;DHT22;57634;51.136;17.024;2023-03-31T09:05:56;20.30;46.80
70244;DHT22;57634;51.136;17.024;2023-03-31T09:09:38;20.10;47.20
70244;DHT22;57634;51.136;17.024;2023-03-31T09:16:04;20.40;47.60
70244;DHT22;57634;51.136;17.024;2023-03-31T09:19:27;20.80;47.20
70244;DHT22;57634;51.136;17.024;2023-03-31T09:22:52;21.10;46.80
70244;DHT22;57634;51.136;17.024;2023-03-31T09:25:57;21.30;45.70
70244;DHT22;57634;51.136;17.024;2023-03-31T09:29:03;21.30;45.20
70244;DHT22;57634;51.136;17.024;2023-03-31T09:32:17;21.10;45.30
70244;DHT22;57634;51.136;17.024;2023-03-31T09:35:21;20.70;45.70
70244;DHT22;57634;51.136;17.024;2023-03-31T09:38:24;20.50;46.10
70244;DHT22;57634;51.136;17.024;2023-03-31T09:41:58;20.30;46.40
70244;DHT22;57634;51.136;17.024;2023-03-31T09:45:00;20.00;46.60
70244;DHT22;57634;51.136;17.024;2023-03-31T09:48:10;19.70;47.30
70244;DHT22;57634;51.136;17.024;2023-03-31T09:51:20;19.40;48.00
70244;DHT22;57634;51.136;17.024;2023-03-31T09:54:27;19.10;48.70
70244;DHT22;57634;51.136;17.024;2023-03-31T09:57:34;18.80;49.40
70244;DHT22;57634;51.136;17.024;2023-03-31T10:04:23;18.10;50.10
70244;DHT22;57634;51.136;17.024;2023-03-31T10:07:25;17.80;51.10
70244;DHT22;57634;51.136;17.024;2023-03-31T10:10:31;17.60;51.50
70244;DHT22;57634;51.136;17.024;2023-03-31T10:16:52;17.40;52.60
70244;DHT22;57634;51.136;17.024;2023-03-31T10:19:59;17.40;53.00
70244;DHT22;57634;51.136;17.024;2023-03-31T10:23:34;17.40;53.40
70244;DHT22;57634;51.136;17.024;2023-03-31T10:26:37;17.40;53.80
70244;DHT22;57634;51.136;17.024;2023-03-31T10:29:41;17.50;53.80
70244;DHT22;57634;51.136;17.024;2023-03-31T10:32:42;17.50;53.50
70244;DHT22;57634;51.136;17.024;2023-03-31T10:35:49;17.50;53.40
70244;DHT22;57634;51.136;17.024;2023-03-31T10:38:54;17.50;53.50
70244;DHT22;57634;51.136;17.024;2023-03-31T10:41:56;17.40;53.20
70244;DHT22;57634;51.136;17.024;2023-03-31T10:48:40;17.20;53.70
70244;DHT22;57634;51.136;17.024;2023-03-31T10:51:48;17.10;53.70
70244;DHT22;57634;51.136;17.024;2023-03-31T10:54:57;17.10;53.90
70244;DHT22;57634;51.136;17.024;2023-03-31T10:58:10;17.00;53.90
70244;DHT22;57634;51.136;17.024;2023-03-31T11:11:30;17.00;55.00
70244;DHT22;57634;51.136;17.024;2023-03-31T11:14:43;17.30;55.00
70244;DHT22;57634;51.136;17.024;2023-03-31T11:38:12;18.90;50.90
70244;DHT22;57634;51.136;17.024;2023-03-31T11:41:22;18.90;50.80
70244;DHT22;57634;51.136;17.024;2023-03-31T11:48:09;18.90;50.70
70244;DHT22;57634;51.136;17.024;2023-03-31T11:51:20;18.90;50.80
70244;DHT22;57634;51.136;17.024;2023-03-31T11:54:34;18.90;50.40
70244;DHT22;57634;51.136;17.024;2023-03-31T11:57:46;18.90;50.50
70244;DHT22;57634;51.136;17.024;2023-03-31T12:01:20;18.80;50.40
70244;DHT22;57634;51.136;17.024;2023-03-31T12:04:33;18.70;50.70
70244;DHT22;57634;51.136;17.024;2023-03-31T12:07:40;18.60;50.80
70244;DHT22;57634;51.136;17.024;2023-03-31T12:10:49;18.60;50.90
70244;DHT22;57634;51.136;17.024;2023-03-31T12:14:00;18.60;50.70
70244;DHT22;57634;51.136;17.024;2023-03-31T12:17:31;18.50;50.40
70244;DHT22;57634;51.136;17.024;2023-03-31T12:20:36;18.20;50.60
70244;DHT22;57634;51.136;17.024;2023-03-31T12:23:44;18.00;51.10
70244;DHT22;57634;51.136;17.024;2023-03-31T12:33:21;17.50;51.60
70244;DHT22;57634;51.136;17.024;2023-03-31T12:37:05;17.30;51.80
70244;DHT22;57634;51.136;17.024;2023-03-31T13:03:48;17.30;55.70
70244;DHT22;57634;51.136;17.024;2023-03-31T13:06:53;17.30;56.20
70244;DHT22;57634;51.136;17.024;2023-03-31T13:13:13;17.20;56.90
70244;DHT22;57634;51.136;17.024;2023-03-31T13:16:19;17.10;57.10
70244;DHT22;57634;51.136;17.024;2023-03-31T13:19:34;17.00;57.40
70244;DHT22;57634;51.136;17.024;2023-03-31T13:29:42;16.60;58.90
70244;DHT22;57634;51.136;17.024;2023-03-31T13:33:01;16.50;59.70
70244;DHT22;57634;51.136;17.024;2023-03-31T14:06:19;15.60;64.30
70244;DHT22;57634;51.136;17.024;2023-03-31T14:09:35;15.50;64.70
70244;DHT22;57634;51.136;17.024;2023-03-31T14:12:37;15.30;65.20
70244;DHT22;57634;51.136;17.024;2023-03-31T14:15:46;15.30;65.60
70244;DHT22;57634;51.136;17.024;2023-03-31T14:32:47;15.30;67.80
70244;DHT22;57634;51.136;17.024;2023-03-31T14:35:56;15.40;68.50
70244;DHT22;57634;51.136;17.024;2023-03-31T14:39:04;15.30;68.70
70244;DHT22;57634;51.136;17.024;2023-03-31T14:42:15;15.20;68.60
70244;DHT22;57634;51.136;17.024;2023-03-31T14:45:23;15.20;68.60
70244;DHT22;57634;51.136;17.024;2023-03-31T14:48:51;15.10;68.90
70244;DHT22;57634;51.136;17.024;2023-03-31T14:51:54;15.00;69.20
70244;DHT22;57634;51.136;17.024;2023-03-31T14:54:58;15.00;69.60
70244;DHT22;57634;51.136;17.024;2023-03-31T14:58:01;15.00;69.80
70244;DHT22;57634;51.136;17.024;2023-03-31T15:01:04;15.00;70.00
70244;DHT22;57634;51.136;17.024;2023-03-31T15:04:12;15.00;70.20
70244;DHT22;57634;51.136;17.024;2023-03-31T15:07:16;15.10;70.20
70244;DHT22;57634;51.136;17.024;2023-03-31T15:10:21;15.20;69.90
70244;DHT22;57634;51.136;17.024;2023-03-31T15:17:01;15.20;69.30
70244;DHT22;57634;51.136;17.024;2023-03-31T15:23:22;15.30;69.70
70244;DHT22;57634;51.136;17.024;2023-03-31T15:26:32;15.20;69.50
70244;DHT22;57634;51.136;17.024;2023-03-31T15:29:40;15.10;69.50
70244;DHT22;57634;51.136;17.024;2023-03-31T15:32:42;15.00;69.70
70244;DHT22;57634;51.136;17.024;2023-03-31T15:35:44;15.00;70.20
70244;DHT22;57634;51.136;17.024;2023-03-31T15:39:12;15.00;70.50
70244;DHT22;57634;51.136;17.024;2023-03-31T15:42:14;14.90;70.40
70244;DHT22;57634;51.136;17.024;2023-03-31T15:48:32;14.70;69.20
70244;DHT22;57634;51.136;17.024;2023-03-31T15:51:39;14.60;69.30
70244;DHT22;57634;51.136;17.024;2023-03-31T15:54:43;14.60;69.10
70244;DHT22;57634;51.136;17.024;2023-03-31T15:57:45;14.50;69.10
70244;DHT22;57634;51.136;17.024;2023-03-31T16:00:52;14.50;69.30
70244;DHT22;57634;51.136;17.024;2023-03-31T16:04:21;14.50;69.40
70244;DHT22;57634;51.136;17.024;2023-03-31T16:07:27;14.50;69.50
70244;DHT22;57634;51.136;17.024;2023-03-31T16:10:30;14.40;69.50
70244;DHT22;57634;51.136;17.024;2023-03-31T16:13:39;14.40;69.50
70244;DHT22;57634;51.136;17.024;2023-03-31T16:16:47;14.30;69.50
70244;DHT22;57634;51.136;17.024;2023-03-31T16:20:01;14.20;69.20
70244;DHT22;57634;51.136;17.024;2023-03-31T16:23:37;14.10;69.20
70244;DHT22;57634;51.136;17.024;2023-03-31T16:26:41;14.00;69.30
70244;DHT22;57634;51.136;17.024;2023-03-31T16:29:42;14.00;69.50
70244;DHT22;57634;51.136;17.024;2023-03-31T16:36:01;13.90;69.50
70244;DHT22;57634;51.136;17.024;2023-03-31T16:39:03;13.90;69.60
70244;DHT22;57634;51.136;17.024;2023-03-31T16:42:05;13.90;69.70
70244;DHT22;57634;51.136;17.024;2023-03-31T16:45:06;13.90;69.90
70244;DHT22;57634;51.136;17.024;2023-03-31T16:48:08;13.90;69.90
70244;DHT22;57634;51.136;17.024;2023-03-31T16:51:37;13.90;69.90
70244;DHT22;57634;51.136;17.024;2023-03-31T16:54:38;13.90;69.70
70244;DHT22;57634;51.136;17.024;2023-03-31T16:57:39;13.90;69.70
70244;DHT22;57634;51.136;17.024;2023-03-31T17:00:41;14.00;69.70
70244;DHT22;57634;51.136;17.024;2023-03-31T17:03:43;14.00;69.50
70244;DHT22;57634;51.136;17.024;2023-03-31T17:06:44;14.00;69.50
70244;DHT22;57634;51.136;17.024;2023-03-31T17:09:45;14.00;69.40
70244;DHT22;57634;51.136;17.024;2023-03-31T17:12:46;14.00;69.40
70244;DHT22;57634;51.136;17.024;2023-03-31T17:15:48;13.90;69.40
70244;DHT22;57634;51.136;17.024;2023-03-31T17:18:49;13.90;69.60
70244;DHT22;57634;51.136;17.024;2023-03-31T17:21:51;13.80;69.70
70244;DHT22;57634;51.136;17.024;2023-03-31T17:24:53;13.80;70.00
70244;DHT22;57634;51.136;17.024;2023-03-31T17:27:58;13.80;70.10
70244;DHT22;57634;51.136;17.024;2023-03-31T17:31:28;13.70;70.00
70244;DHT22;57634;51.136;17.024;2023-03-31T17:34:31;13.70;70.20
70244;DHT22;57634;51.136;17.024;2023-03-31T17:37:33;13.70;70.30
70244;DHT22;57634;51.136;17.024;2023-03-31T17:40:34;13.60;70.40
70244;DHT22;57634;51.136;17.024;2023-03-31T17:43:35;13.60;70.60
70244;DHT22;57634;51.136;17.024;2023-03-31T17:46:39;13.60;70.70
70244;DHT22;57634;51.136;17.024;2023-03-31T17:49:41;13.50;70.80
70244;DHT22;57634;51.136;17.024;2023-03-31T17:52:42;13.50;70.80
70244;DHT22;57634;51.136;17.024;2023-03-31T17:55:44;13.50;70.80
70244;DHT22;57634;51.136;17.024;2023-03-31T17:58:46;13.50;70.80
70244;DHT22;57634;51.136;17.024;2023-03-31T18:01:48;13.50;70.70
70244;DHT22;57634;51.136;17.024;2023-03-31T18:04:49;13.50;70.70
70244;DHT22;57634;51.136;17.024;2023-03-31T18:07:50;13.50;70.70
70244;DHT22;57634;51.136;17.024;2023-03-31T18:11:20;13.50;70.60
70244;DHT22;57634;51.136;17.024;2023-03-31T18:14:21;13.50;70.70
70244;DHT22;57634;51.136;17.024;2023-03-31T18:17:22;13.50;70.60
70244;DHT22;57634;51.136;17.024;2023-03-31T18:20:24;13.50;70.60
70244;DHT22;57634;51.136;17.024;2023-03-31T18:23:25;13.50;70.50
70244;DHT22;57634;51.136;17.024;2023-03-31T18:26:27;13.50;70.40
70244;DHT22;57634;51.136;17.024;2023-03-31T18:29:29;13.50;70.40
70244;DHT22;57634;51.136;17.024;2023-03-31T18:32:30;13.50;70.40
70244;DHT22;57634;51.136;17.024;2023-03-31T18:35:33;13.50;70.30
70244;DHT22;57634;51.136;17.024;2023-03-31T18:38:35;13.50;70.40
70244;DHT22;57634;51.136;17.024;2023-03-31T18:41:43;13.40;70.30
70244;DHT22;57634;51.136;17.024;2023-03-31T18:44:45;13.30;70.30
70244;DHT22;57634;51.136;17.024;2023-03-31T18:47:46;13.30;70.30
70244;DHT22;57634;51.136;17.024;2023-03-31T18:51:13;13.30;70.30
70244;DHT22;57634;51.136;17.024;2023-03-31T18:54:15;13.20;70.50
70244;DHT22;57634;51.136;17.024;2023-03-31T18:57:17;13.10;70.70
70244;DHT22;57634;51.136;17.024;2023-03-31T19:00:18;13.00;70.90
70244;DHT22;57634;51.136;17.024;2023-03-31T19:03:20;12.90;71.00
70244;DHT22;57634;51.136;17.024;2023-03-31T19:06:22;12.80;71.20
70244;DHT22;57634;51.136;17.024;2023-03-31T19:09:23;12.70;71.40
70244;DHT22;57634;51.136;17.024;2023-03-31T19:12:28;12.70;71.60
70244;DHT22;57634;51.136;17.024;2023-03-31T19:15:30;12.60;71.80
70244;DHT22;57634;51.136;17.024;2023-03-31T19:18:31;12.50;71.90
70244;DHT22;57634;51.136;17.024;2023-03-31T19:21:33;12.50;72.00
70244;DHT22;57634;51.136;17.024;2023-03-31T19:24:38;12.50;72.10
70244;DHT22;57634;51.136;17.024;2023-03-31T19:28:07;12.40;72.10
70244;DHT22;57634;51.136;17.024;2023-03-31T19:31:10;12.40;72.10
70244;DHT22;57634;51.136;17.024;2023-03-31T19:34:12;12.30;72.20
70244;DHT22;57634;51.136;17.024;2023-03-31T19:37:16;12.30;72.40
70244;DHT22;57634;51.136;17.024;2023-03-31T19:40:17;12.20;72.40
70244;DHT22;57634;51.136;17.024;2023-03-31T19:43:21;12.20;72.50
70244;DHT22;57634;51.136;17.024;2023-03-31T19:46:23;12.20;72.50
70244;DHT22;57634;51.136;17.024;2023-03-31T19:49:25;12.20;72.50
70244;DHT22;57634;51.136;17.024;2023-03-31T19:52:28;12.20;72.50
70244;DHT22;57634;51.136;17.024;2023-03-31T19:55:30;12.10;72.50
70244;DHT22;57634;51.136;17.024;2023-03-31T19:58:33;12.10;72.60
70244;DHT22;57634;51.136;17.024;2023-03-31T20:01:36;12.10;72.60
70244;DHT22;57634;51.136;17.024;2023-03-31T20:05:03;12.00;72.80
70244;DHT22;57634;51.136;17.024;2023-03-31T20:08:05;12.00;73.10
70244;DHT22;57634;51.136;17.024;2023-03-31T20:11:08;11.90;73.30
70244;DHT22;57634;51.136;17.024;2023-03-31T20:14:12;11.90;73.50
70244;DHT22;57634;51.136;17.024;2023-03-31T20:17:14;11.90;73.80
70244;DHT22;57634;51.136;17.024;2023-03-31T20:20:17;11.90;73.90
70244;DHT22;57634;51.136;17.024;2023-03-31T20:23:18;11.90;73.90
70244;DHT22;57634;51.136;17.024;2023-03-31T20:26:23;11.90;73.90
70244;DHT22;57634;51.136;17.024;2023-03-31T20:29:26;11.90;73.90
70244;DHT22;57634;51.136;17.024;2023-03-31T20:32:27;11.90;73.90
70244;DHT22;57634;51.136;17.024;2023-03-31T20:35:29;11.90;74.00
70244;DHT22;57634;51.136;17.024;2023-03-31T20:38:31;11.90;74.20
70244;DHT22;57634;51.136;17.024;2023-03-31T20:41:58;11.90;74.40
70244;DHT22;57634;51.136;17.024;2023-03-31T20:44:59;11.90;74.70
70244;DHT22;57634;51.136;17.024;2023-03-31T20:48:00;11.90;75.20
70244;DHT22;57634;51.136;17.024;2023-03-31T20:51:05;11.90;75.80
70244;DHT22;57634;51.136;17.024;2023-03-31T20:54:08;11.80;76.30
70244;DHT22;57634;51.136;17.024;2023-03-31T20:57:09;11.80;76.60
70244;DHT22;57634;51.136;17.024;2023-03-31T21:00:12;11.70;77.00
70244;DHT22;57634;51.136;17.024;2023-03-31T21:03:13;11.70;77.40
70244;DHT22;57634;51.136;17.024;2023-03-31T21:06:16;11.60;77.60
70244;DHT22;57634;51.136;17.024;2023-03-31T21:09:21;11.50;77.70
70244;DHT22;57634;51.136;17.024;2023-03-31T21:12:23;11.50;77.60
70244;DHT22;57634;51.136;17.024;2023-03-31T21:15:24;11.50;77.70
70244;DHT22;57634;51.136;17.024;2023-03-31T21:18:52;11.40;77.80
70244;DHT22;57634;51.136;17.024;2023-03-31T21:21:59;11.30;78.00
70244;DHT22;57634;51.136;17.024;2023-03-31T21:25:01;11.30;77.90
70244;DHT22;57634;51.136;17.024;2023-03-31T21:28:02;11.30;78.00
70244;DHT22;57634;51.136;17.024;2023-03-31T21:31:06;11.30;78.00
70244;DHT22;57634;51.136;17.024;2023-03-31T21:34:08;11.30;78.10
70244;DHT22;57634;51.136;17.024;2023-03-31T21:37:10;11.30;78.00
70244;DHT22;57634;51.136;17.024;2023-03-31T21:40:11;11.30;77.80
70244;DHT22;57634;51.136;17.024;2023-03-31T21:43:15;11.30;77.60
70244;DHT22;57634;51.136;17.024;2023-03-31T21:46:18;11.20;77.50
70244;DHT22;57634;51.136;17.024;2023-03-31T21:49:21;11.20;77.50
70244;DHT22;57634;51.136;17.024;2023-03-31T21:52:50;11.30;77.50
70244;DHT22;57634;51.136;17.024;2023-03-31T21:55:52;11.30;77.30
70244;DHT22;57634;51.136;17.024;2023-03-31T21:58:56;11.30;77.10
70244;DHT22;57634;51.136;17.024;2023-03-31T22:01:57;11.30;76.90
70244;DHT22;57634;51.136;17.024;2023-03-31T22:04:59;11.30;76.80
70244;DHT22;57634;51.136;17.024;2023-03-31T22:08:00;11.30;76.60
70244;DHT22;57634;51.136;17.024;2023-03-31T22:11:02;11.30;76.60
70244;DHT22;57634;51.136;17.024;2023-03-31T22:14:04;11.30;76.50
70244;DHT22;57634;51.136;17.024;2023-03-31T22:17:06;11.30;76.50
70244;DHT22;57634;51.136;17.024;2023-03-31T22:20:10;11.30;76.50
70244;DHT22;57634;51.136;17.024;2023-03-31T22:23:12;11.30;76.50
70244;DHT22;57634;51.136;17.024;2023-03-31T22:26:13;11.30;76.50
70244;DHT22;57634;51.136;17.024;2023-03-31T22:29:43;11.30;76.50
70244;DHT22;57634;51.136;17.024;2023-03-31T22:32:44;11.30;76.60
70244;DHT22;57634;51.136;17.024;2023-03-31T22:35:46;11.20;76.60
70244;DHT22;57634;51.136;17.024;2023-03-31T22:38:50;11.20;76.60